»·PEaware :: ECJUB KVNY-KSNA

ECJUB :: KVNY-KSNA

FLIGHT INFORMATION

Flight Status: Arrived
Operator: Unknown
More flights by this operator :: More flights under this callsign
Pilot: Anonymous 26802 (26802)
Aircraft: BEECH AIRCRAFT BARON
(BE58)
More flights by this aircraft type
Origin: KVNY Van Nuys
United States
Destination: KSNA John Wayne-Orange Co
United States
More flights between these airports :: More routes between these airports
Route: +SLI
File this flight plan on PilotEdge
Remarks: via coliseum route
Altitude:
(Current/Filed)
5,500ft
Speed:
(Current/Filed)
150kts
Departed: 29-Nov-19 02:38 PM
Arrived: 29-Nov-19 03:12 PM
Distance/Time
Traveled:
44nm/0:34
Distance/Time
To Go:
Arrived

Flight Plot

Page will automatically refresh every two minutes.

Flight plan parsing failed; only flown route is shown


Map Options




Map Legend


Flown Route
Filed Route
Departure Airport
Arrival Airport
Navaid (VOR, NDB)
Fix

Horizontal Profiles

Position Reports

Time Latitude Longitude Heading Altitude Ground
Speed
29-Nov-19 14:19 34.199748 -118.490973 358 806ft 0kts
29-Nov-19 14:20 34.199748 -118.490973 358 806ft 0kts
29-Nov-19 14:21 34.199748 -118.490973 358 806ft 0kts
29-Nov-19 14:22 34.199748 -118.490973 358 806ft 0kts
29-Nov-19 14:23 34.199748 -118.490973 358 806ft 0kts
29-Nov-19 14:27 34.199748 -118.490973 358 806ft 0kts
29-Nov-19 14:28 34.199748 -118.490973 358 806ft 0kts
29-Nov-19 14:29 34.199748 -118.490973 358 806ft 0kts
29-Nov-19 14:30 34.199748 -118.490973 358 806ft 0kts
29-Nov-19 14:31 34.200508 -118.490380 352 806ft 9kts
29-Nov-19 14:32 34.204232 -118.491053 352 806ft 22kts
29-Nov-19 14:33 34.210424 -118.491630 353 806ft 23kts
29-Nov-19 14:34 34.217205 -118.492280 357 806ft 25kts
29-Nov-19 14:35 34.218664 -118.492160 46 806ft 0kts
29-Nov-19 14:36 34.217729 -118.491126 175 806ft 34kts
29-Nov-19 14:37 34.183824 -118.487812 175 1525ft 152kts
29-Nov-19 14:38 34.173471 -118.445217 58 2255ft 170kts
29-Nov-19 14:39 34.182656 -118.393546 149 2276ft 181kts
29-Nov-19 14:40 34.135938 -118.376983 146 2276ft 186kts
29-Nov-19 14:41 34.091794 -118.344934 153 2242ft 187kts
29-Nov-19 14:42 34.068626 -118.300672 51 2320ft 179kts
29-Nov-19 14:43 34.105293 -118.318836 301 3036ft 166kts
29-Nov-19 14:44 34.128616 -118.365154 304 4008ft 158kts
29-Nov-19 14:45 34.155395 -118.405323 311 5092ft 151kts
29-Nov-19 14:46 34.182724 -118.442802 310 6082ft 150kts
29-Nov-19 14:47 34.210424 -118.480893 312 7067ft 152kts
29-Nov-19 14:48 34.240406 -118.516964 298 7996ft 153kts
29-Nov-19 14:49 34.266908 -118.542828 39 8824ft 152kts
29-Nov-19 14:50 34.251369 -118.507833 159 9662ft 149kts
29-Nov-19 14:51 34.210318 -118.483926 147 9745ft 175kts
29-Nov-19 14:52 34.176639 -118.443483 143 9746ft 178kts
29-Nov-19 14:53 34.136952 -118.406319 139 9711ft 181kts
29-Nov-19 14:54 34.099050 -118.367480 139 9700ft 181kts
29-Nov-19 14:55 34.063036 -118.330565 139 9698ft 181kts
29-Nov-19 14:56 34.023988 -118.290549 139 9698ft 181kts
29-Nov-19 14:57 33.985037 -118.251721 141 9698ft 181kts
29-Nov-19 14:58 33.948064 -118.216634 142 9697ft 181kts
29-Nov-19 14:59 33.912636 -118.183294 142 9696ft 182kts
29-Nov-19 15:00 33.880633 -118.153164 142 9700ft 181kts
29-Nov-19 15:01 33.843943 -118.118659 142 9509ft 176kts
29-Nov-19 15:02 33.802210 -118.077011 136 8357ft 173kts
29-Nov-19 15:03 33.765205 -118.037509 138 7298ft 162kts
29-Nov-19 15:04 33.733770 -118.003013 143 6375ft 150kts
29-Nov-19 15:05 33.705349 -117.967804 125 5497ft 147kts
29-Nov-19 15:06 33.680377 -117.930639 130 4545ft 138kts
29-Nov-19 15:07 33.658614 -117.897505 86 3287ft 122kts
29-Nov-19 15:08 33.684919 -117.878061 12 2216ft 124kts
29-Nov-19 15:09 33.709258 -117.860976 121 1196ft 118kts
29-Nov-19 15:10 33.682330 -117.864601 206 79ft 97kts
29-Nov-19 15:11 33.675848 -117.869517 297 60ft 0kts
29-Nov-19 15:12 33.675420 -117.871551 227 60ft 0kts

Navigation Log

Ident Type
Flight plan parsing failed, navigation log unavailable